RJTL(METAR)
07/27 17:00
METAR RJTL 270800Z 34006KT 300V020 9999 SCT040 BKN090 30/22 Q0995
RMK 3CU040 6AC090 A2941=
戻る
トップページへ戻る
IMOC Co,.Ltd.